Impacts TAF Board INFO
FOR SITUATIONAL AWARENESS. NOT TO BE USED FOR FLIGHT PLANNING PURPOSES.
IDs:

KFLL - Ft Lauderdale-Hollyw, FL, US

Issued at 0307 UTC 25 May 2018
Updated at 0449 UTC 25 May 2018
Potential Impact None Slight Moderate High
Time0353Z 25/05Z 25/06Z 25/07Z 25/08Z 25/09Z 25/10Z 25/11Z 25/12Z 25/13Z 25/14Z 25/15Z 25/16Z 25/17Z>>
Type OBS PRVL PRVL PRVL PRVL PRVL PRVL PRVL PRVL PRVL PRVL PRVL PRVL PRVL
VIS 10 >6 >6 >6 >6 >6 >6 >6 >6 >6 >6 >6 >6 >6
CIG 70 100 100 100 100 100 100 100 100 100 100 100 100 100
Cover OVC BKN BKN BKN BKN BKN BKN BKN BKN BKN BKN BKN BKN BKN
FltCat VFR VFR VFR VFR VFR VFR VFR VFR VFR VFR VFR VFR VFR VFR
WX -- VCSH -- -- -- -- -- -- -- -- VCSH VCSH VCSH VCSH
WDir 120 120 VRB VRB VRB VRB VRB VRB VRB VRB 120 120 120 120
WSpd 7 7 5 5 5 5 5 5 5 5 10 10 10 10
WGst -- -- -- -- -- -- -- -- -- -- -- -- -- --

Raw TAF
KFLL 250307Z 2503/2606 12007KT P6SM VCSH SCT050 BKN100 BKN250
  FM250600 VRB05KT P6SM SCT050 BKN100 BKN250
  FM251400 12010KT P6SM VCSH SCT035 BKN100
  FM251800 13013KT P6SM VCTS SCT020CB BKN040 BKN100
  FM260300 11010KT P6SM VCSH SCT040 BKN120


Raw METAR
KFLL 250353Z 12007KT 10SM SCT018 BKN070 OVC200 26/24 A3004 RMK CB DSNT SW AND NW MOV NW
KFLL 250253Z 11011KT 10SM SCT022 BKN080 BKN220 27/24 A3004
KFLL 250153Z COR 10010KT 10SM SCT024 BKN065 BKN200 26/24 A3003

METAR Board
Radar Display
Forecast Discussion

FOR SITUATIONAL AWARENESS. NOT TO BE USED FOR FLIGHT PLANNING PURPOSES.